sensor_id;sensor_type;location;lat;lon;timestamp;pressure;altitude;pressure_sealevel;temperature;humidity
25130;BME280;13308;50.860;13.664;2022-08-19T04:30:15;96107.25;;;19.49;100.00
25130;BME280;13308;50.860;13.664;2022-08-19T04:32:40;96114.13;;;19.48;100.00
25130;BME280;13308;50.860;13.664;2022-08-19T04:35:08;96114.38;;;19.50;100.00
25130;BME280;13308;50.860;13.664;2022-08-19T04:37:34;96121.22;;;19.49;100.00
25130;BME280;13308;50.860;13.664;2022-08-19T04:39:59;96121.78;;;19.53;100.00
25130;BME280;13308;50.860;13.664;2022-08-19T04:42:43;96122.78;;;19.50;100.00
25130;BME280;13308;50.860;13.664;2022-08-19T04:45:13;96131.16;;;19.50;100.00
25130;BME280;13308;50.860;13.664;2022-08-19T04:47:41;96134.28;;;19.57;100.00
25130;BME280;13308;50.860;13.664;2022-08-19T04:50:08;96123.78;;;19.47;100.00
25130;BME280;13308;50.860;13.664;2022-08-19T04:52:36;96121.22;;;19.49;100.00
25130;BME280;13308;50.860;13.664;2022-08-19T04:55:01;96121.69;;;19.42;100.00
25130;BME280;13308;50.860;13.664;2022-08-19T04:57:26;96113.84;;;19.46;100.00
25130;BME280;13308;50.860;13.664;2022-08-19T04:59:56;96115.66;;;19.49;100.00
25130;BME280;13308;50.860;13.664;2022-08-19T05:02:22;96121.50;;;19.51;100.00
25130;BME280;13308;50.860;13.664;2022-08-19T05:04:57;96128.81;;;19.43;100.00
25130;BME280;13308;50.860;13.664;2022-08-19T05:07:24;96127.28;;;19.42;100.00
25130;BME280;13308;50.860;13.664;2022-08-19T05:09:50;96139.72;;;19.41;100.00
25130;BME280;13308;50.860;13.664;2022-08-19T05:12:15;96146.94;;;19.27;100.00
25130;BME280;13308;50.860;13.664;2022-08-19T05:14:40;96155.91;;;19.32;100.00
25130;BME280;13308;50.860;13.664;2022-08-19T05:17:06;96157.69;;;19.34;100.00
25130;BME280;13308;50.860;13.664;2022-08-19T05:19:31;96168.41;;;19.36;100.00
25130;BME280;13308;50.860;13.664;2022-08-19T05:22:15;96174.22;;;19.33;100.00
25130;BME280;13308;50.860;13.664;2022-08-19T05:25:09;96179.84;;;19.38;100.00
25130;BME280;13308;50.860;13.664;2022-08-19T05:27:34;96174.75;;;19.36;100.00
25130;BME280;13308;50.860;13.664;2022-08-19T05:30:00;96176.84;;;19.41;100.00
25130;BME280;13308;50.860;13.664;2022-08-19T05:32:26;96182.66;;;19.38;100.00
25130;BME280;13308;50.860;13.664;2022-08-19T05:34:52;96186.72;;;19.37;100.00
25130;BME280;13308;50.860;13.664;2022-08-19T05:37:17;96193.09;;;19.38;100.00
25130;BME280;13308;50.860;13.664;2022-08-19T05:39:43;96200.97;;;19.39;100.00
25130;BME280;13308;50.860;13.664;2022-08-19T05:42:11;96207.13;;;19.43;100.00
25130;BME280;13308;50.860;13.664;2022-08-19T05:44:40;96210.63;;;19.38;100.00
25130;BME280;13308;50.860;13.664;2022-08-19T05:47:11;96212.94;;;19.39;100.00
25130;BME280;13308;50.860;13.664;2022-08-19T05:49:37;96215.94;;;19.36;100.00
25130;BME280;13308;50.860;13.664;2022-08-19T05:52:05;96224.19;;;19.45;100.00
25130;BME280;13308;50.860;13.664;2022-08-19T05:54:31;96229.66;;;19.34;100.00
25130;BME280;13308;50.860;13.664;2022-08-19T05:56:57;96232.25;;;19.38;100.00
25130;BME280;13308;50.860;13.664;2022-08-19T05:59:22;96232.47;;;19.34;100.00
25130;BME280;13308;50.860;13.664;2022-08-19T06:01:50;96247.69;;;19.33;100.00
25130;BME280;13308;50.860;13.664;2022-08-19T06:04:17;96254.63;;;19.38;100.00
25130;BME280;13308;50.860;13.664;2022-08-19T06:06:49;96262.50;;;19.39;100.00
25130;BME280;13308;50.860;13.664;2022-08-19T06:09:15;96269.66;;;19.40;100.00
25130;BME280;13308;50.860;13.664;2022-08-19T06:11:46;96266.66;;;19.43;100.00
25130;BME280;13308;50.860;13.664;2022-08-19T06:14:16;96281.97;;;19.48;100.00
25130;BME280;13308;50.860;13.664;2022-08-19T06:16:43;96285.81;;;19.50;100.00
25130;BME280;13308;50.860;13.664;2022-08-19T06:19:12;96286.34;;;19.54;100.00
25130;BME280;13308;50.860;13.664;2022-08-19T06:21:40;96283.50;;;19.49;100.00
25130;BME280;13308;50.860;13.664;2022-08-19T06:24:08;96302.03;;;19.46;100.00
25130;BME280;13308;50.860;13.664;2022-08-19T06:26:36;96302.03;;;19.46;100.00
25130;BME280;13308;50.860;13.664;2022-08-19T06:29:04;96304.75;;;19.41;100.00
25130;BME280;13308;50.860;13.664;2022-08-19T06:31:32;96302.72;;;19.41;100.00
25130;BME280;13308;50.860;13.664;2022-08-19T06:33:59;96303.22;;;19.40;100.00
25130;BME280;13308;50.860;13.664;2022-08-19T06:36:35;96306.56;;;19.44;100.00
25130;BME280;13308;50.860;13.664;2022-08-19T06:39:03;96318.44;;;19.39;100.00
25130;BME280;13308;50.860;13.664;2022-08-19T06:41:29;96321.53;;;19.41;100.00
25130;BME280;13308;50.860;13.664;2022-08-19T06:43:55;96312.31;;;19.35;100.00
25130;BME280;13308;50.860;13.664;2022-08-19T06:46:21;96322.19;;;19.50;100.00
25130;BME280;13308;50.860;13.664;2022-08-19T06:48:47;96324.97;;;19.50;100.00
25130;BME280;13308;50.860;13.664;2022-08-19T06:51:15;96324.88;;;19.45;100.00
25130;BME280;13308;50.860;13.664;2022-08-19T06:53:43;96316.50;;;19.45;100.00
25130;BME280;13308;50.860;13.664;2022-08-19T06:56:11;96322.09;;;19.45;100.00
25130;BME280;13308;50.860;13.664;2022-08-19T06:58:38;96320.00;;;19.40;100.00
25130;BME280;13308;50.860;13.664;2022-08-19T07:01:04;96317.06;;;19.49;100.00
25130;BME280;13308;50.860;13.664;2022-08-19T07:03:31;96310.50;;;19.52;100.00
25130;BME280;13308;50.860;13.664;2022-08-19T07:06:08;96314.84;;;19.53;100.00
25130;BME280;13308;50.860;13.664;2022-08-19T07:08:35;96315.88;;;19.55;100.00
25130;BME280;13308;50.860;13.664;2022-08-19T07:11:09;96319.84;;;19.69;100.00
25130;BME280;13308;50.860;13.664;2022-08-19T07:13:35;96327.41;;;19.63;100.00
25130;BME280;13308;50.860;13.664;2022-08-19T07:16:10;96329.38;;;19.57;100.00
25130;BME280;13308;50.860;13.664;2022-08-19T07:18:35;96326.09;;;19.58;100.00
25130;BME280;13308;50.860;13.664;2022-08-19T07:21:05;96319.56;;;19.67;100.00
25130;BME280;13308;50.860;13.664;2022-08-19T07:23:31;96326.50;;;19.71;100.00
25130;BME280;13308;50.860;13.664;2022-08-19T07:25:57;96328.66;;;19.62;100.00
25130;BME280;13308;50.860;13.664;2022-08-19T07:28:22;96332.19;;;19.77;100.00
25130;BME280;13308;50.860;13.664;2022-08-19T07:30:48;96320.97;;;19.77;100.00
25130;BME280;13308;50.860;13.664;2022-08-19T07:33:15;96318.94;;;19.77;100.00
25130;BME280;13308;50.860;13.664;2022-08-19T07:35:41;96324.06;;;19.79;100.00
25130;BME280;13308;50.860;13.664;2022-08-19T07:38:07;96323.97;;;19.93;100.00
25130;BME280;13308;50.860;13.664;2022-08-19T07:40:32;96326.56;;;19.97;100.00
25130;BME280;13308;50.860;13.664;2022-08-19T07:42:57;96327.59;;;19.99;100.00
25130;BME280;13308;50.860;13.664;2022-08-19T07:45:23;96330.13;;;19.97;100.00
25130;BME280;13308;50.860;13.664;2022-08-19T07:47:48;96327.28;;;20.12;100.00
25130;BME280;13308;50.860;13.664;2022-08-19T07:50:15;96326.00;;;20.13;100.00
25130;BME280;13308;50.860;13.664;2022-08-19T07:52:40;96342.03;;;20.12;100.00
25130;BME280;13308;50.860;13.664;2022-08-19T07:55:07;96342.25;;;20.09;100.00
25130;BME280;13308;50.860;13.664;2022-08-19T07:57:33;96344.34;;;20.14;100.00
25130;BME280;13308;50.860;13.664;2022-08-19T07:59:58;96345.94;;;20.20;100.00
25130;BME280;13308;50.860;13.664;2022-08-19T08:02:24;96354.13;;;20.24;100.00
25130;BME280;13308;50.860;13.664;2022-08-19T08:04:49;96352.69;;;20.34;100.00
25130;BME280;13308;50.860;13.664;2022-08-19T08:07:33;96349.84;;;20.28;100.00
25130;BME280;13308;50.860;13.664;2022-08-19T08:10:17;96351.16;;;20.33;100.00
25130;BME280;13308;50.860;13.664;2022-08-19T08:12:42;96352.69;;;20.34;100.00
25130;BME280;13308;50.860;13.664;2022-08-19T08:15:13;96360.84;;;20.32;100.00
25130;BME280;13308;50.860;13.664;2022-08-19T08:17:42;96359.94;;;20.46;100.00
25130;BME280;13308;50.860;13.664;2022-08-19T08:20:08;96349.13;;;20.33;100.00
25130;BME280;13308;50.860;13.664;2022-08-19T08:22:34;96357.66;;;20.19;100.00
25130;BME280;13308;50.860;13.664;2022-08-19T08:25:23;96358.00;;;20.26;100.00
25130;BME280;13308;50.860;13.664;2022-08-19T08:27:49;96365.72;;;20.37;100.00
25130;BME280;13308;50.860;13.664;2022-08-19T08:30:20;96366.88;;;20.25;100.00
25130;BME280;13308;50.860;13.664;2022-08-19T08:32:47;96365.03;;;20.42;100.00
25130;BME280;13308;50.860;13.664;2022-08-19T08:35:17;96360.50;;;20.50;100.00
25130;BME280;13308;50.860;13.664;2022-08-19T08:37:44;96351.38;;;20.55;100.00
25130;BME280;13308;50.860;13.664;2022-08-19T08:40:33;96350.22;;;20.67;100.00
25130;BME280;13308;50.860;13.664;2022-08-19T08:43:30;96358.88;;;20.63;100.00
25130;BME280;13308;50.860;13.664;2022-08-19T08:46:43;96365.28;;;20.69;100.00
25130;BME280;13308;50.860;13.664;2022-08-19T08:49:43;96367.88;;;20.73;100.00
25130;BME280;13308;50.860;13.664;2022-08-19T08:52:15;96360.16;;;20.93;100.00
25130;BME280;13308;50.860;13.664;2022-08-19T08:54:45;96373.75;;;21.06;100.00
25130;BME280;13308;50.860;13.664;2022-08-19T08:57:17;96378.03;;;20.96;100.00
25130;BME280;13308;50.860;13.664;2022-08-19T08:59:47;96380.28;;;20.92;100.00
25130;BME280;13308;50.860;13.664;2022-08-19T09:02:17;96382.75;;;20.84;100.00
25130;BME280;13308;50.860;13.664;2022-08-19T09:04:42;96379.75;;;20.88;100.00
25130;BME280;13308;50.860;13.664;2022-08-19T09:10:11;96381.69;;;20.82;100.00
25130;BME280;13308;50.860;13.664;2022-08-19T09:15:34;96380.13;;;21.01;100.00
25130;BME280;13308;50.860;13.664;2022-08-19T09:18:02;96372.88;;;21.20;100.00
25130;BME280;13308;50.860;13.664;2022-08-19T09:20:29;96377.00;;;21.30;100.00
25130;BME280;13308;50.860;13.664;2022-08-19T09:22:56;96365.78;;;21.30;100.00
25130;BME280;13308;50.860;13.664;2022-08-19T09:25:22;96368.16;;;21.37;100.00
25130;BME280;13308;50.860;13.664;2022-08-19T09:27:48;96369.25;;;21.14;100.00
25130;BME280;13308;50.860;13.664;2022-08-19T09:30:20;96370.97;;;21.06;100.00
25130;BME280;13308;50.860;13.664;2022-08-19T09:32:47;96366.53;;;20.94;100.00
25130;BME280;13308;50.860;13.664;2022-08-19T09:35:13;96370.25;;;20.85;100.00
25130;BME280;13308;50.860;13.664;2022-08-19T09:37:39;96369.34;;;20.94;100.00
25130;BME280;13308;50.860;13.664;2022-08-19T09:40:05;96373.50;;;21.04;100.00
25130;BME280;13308;50.860;13.664;2022-08-19T09:42:32;96376.88;;;21.08;100.00
25130;BME280;13308;50.860;13.664;2022-08-19T09:44:58;96385.00;;;21.06;100.00
25130;BME280;13308;50.860;13.664;2022-08-19T09:47:24;96385.22;;;21.02;100.00
25130;BME280;13308;50.860;13.664;2022-08-19T09:49:49;96386.72;;;20.98;100.00
25130;BME280;13308;50.860;13.664;2022-08-19T09:52:15;96377.84;;;21.05;100.00
25130;BME280;13308;50.860;13.664;2022-08-19T09:54:41;96391.06;;;20.99;100.00
25130;BME280;13308;50.860;13.664;2022-08-19T09:57:06;96384.09;;;20.89;100.00
25130;BME280;13308;50.860;13.664;2022-08-19T09:59:32;96373.97;;;20.97;100.00
25130;BME280;13308;50.860;13.664;2022-08-19T10:01:58;96373.69;;;20.95;100.00
25130;BME280;13308;50.860;13.664;2022-08-19T10:04:23;96374.41;;;20.90;100.00
25130;BME280;13308;50.860;13.664;2022-08-19T10:07:09;96378.31;;;20.98;100.00
25130;BME280;13308;50.860;13.664;2022-08-19T10:09:34;96385.75;;;21.01;100.00
25130;BME280;13308;50.860;13.664;2022-08-19T10:12:00;96392.22;;;21.18;100.00
25130;BME280;13308;50.860;13.664;2022-08-19T10:14:26;96400.97;;;21.25;100.00
25130;BME280;13308;50.860;13.664;2022-08-19T10:16:52;96396.94;;;21.32;100.00
25130;BME280;13308;50.860;13.664;2022-08-19T10:19:17;96403.63;;;21.40;100.00
25130;BME280;13308;50.860;13.664;2022-08-19T10:21:45;96403.50;;;21.23;100.00
25130;BME280;13308;50.860;13.664;2022-08-19T10:24:10;96405.38;;;21.37;100.00
25130;BME280;13308;50.860;13.664;2022-08-19T10:26:38;96401.91;;;21.17;100.00
25130;BME280;13308;50.860;13.664;2022-08-19T10:29:04;96397.03;;;21.12;100.00
25130;BME280;13308;50.860;13.664;2022-08-19T10:31:32;96413.34;;;21.13;100.00
25130;BME280;13308;50.860;13.664;2022-08-19T10:33:58;96403.56;;;21.03;100.00
25130;BME280;13308;50.860;13.664;2022-08-19T10:36:26;96407.63;;;20.97;100.00
25130;BME280;13308;50.860;13.664;2022-08-19T10:38:53;96416.34;;;21.04;100.00
25130;BME280;13308;50.860;13.664;2022-08-19T10:41:23;96417.56;;;20.98;100.00
25130;BME280;13308;50.860;13.664;2022-08-19T10:43:58;96417.16;;;20.85;100.00
25130;BME280;13308;50.860;13.664;2022-08-19T10:46:25;96417.78;;;20.94;100.00
25130;BME280;13308;50.860;13.664;2022-08-19T10:48:52;96420.94;;;21.02;100.00
25130;BME280;13308;50.860;13.664;2022-08-19T10:51:17;96408.06;;;21.21;100.00
25130;BME280;13308;50.860;13.664;2022-08-19T10:54:02;96422.91;;;21.27;100.00
25130;BME280;13308;50.860;13.664;2022-08-19T10:56:28;96425.63;;;21.16;100.00
25130;BME280;13308;50.860;13.664;2022-08-19T10:59:13;96434.75;;;21.11;100.00
25130;BME280;13308;50.860;13.664;2022-08-19T11:01:40;96447.16;;;21.30;100.00
25130;BME280;13308;50.860;13.664;2022-08-19T11:04:06;96433.50;;;21.43;100.00
25130;BME280;13308;50.860;13.664;2022-08-19T11:06:35;96431.97;;;21.78;100.00
25130;BME280;13308;50.860;13.664;2022-08-19T11:09:02;96441.41;;;22.23;100.00
25130;BME280;13308;50.860;13.664;2022-08-19T11:11:28;96430.03;;;22.48;100.00
25130;BME280;13308;50.860;13.664;2022-08-19T11:13:53;96445.69;;;22.77;100.00
25130;BME280;13308;50.860;13.664;2022-08-19T11:16:23;96445.66;;;22.66;100.00
25130;BME280;13308;50.860;13.664;2022-08-19T11:18:52;96438.22;;;22.52;100.00
25130;BME280;13308;50.860;13.664;2022-08-19T11:23:46;96439.22;;;22.43;100.00
25130;BME280;13308;50.860;13.664;2022-08-19T11:26:13;96450.22;;;22.47;100.00
25130;BME280;13308;50.860;13.664;2022-08-19T11:28:39;96443.06;;;22.51;100.00
25130;BME280;13308;50.860;13.664;2022-08-19T11:31:16;96442.56;;;22.53;100.00
25130;BME280;13308;50.860;13.664;2022-08-19T11:33:41;96453.59;;;22.73;100.00
25130;BME280;13308;50.860;13.664;2022-08-19T11:36:07;96443.13;;;22.79;100.00
25130;BME280;13308;50.860;13.664;2022-08-19T11:38:33;96432.09;;;22.59;100.00
25130;BME280;13308;50.860;13.664;2022-08-19T11:41:03;96439.78;;;22.58;100.00
25130;BME280;13308;50.860;13.664;2022-08-19T11:43:30;96441.56;;;22.56;100.00
25130;BME280;13308;50.860;13.664;2022-08-19T11:45:56;96445.66;;;22.66;100.00
25130;BME280;13308;50.860;13.664;2022-08-19T11:48:22;96437.75;;;22.75;100.00
25130;BME280;13308;50.860;13.664;2022-08-19T11:50:51;96439.25;;;22.54;100.00
25130;BME280;13308;50.860;13.664;2022-08-19T11:53:18;96446.66;;;22.52;100.00
25130;BME280;13308;50.860;13.664;2022-08-19T11:55:48;96448.19;;;22.53;100.00
25130;BME280;13308;50.860;13.664;2022-08-19T11:58:16;96446.19;;;22.70;100.00
25130;BME280;13308;50.860;13.664;2022-08-19T12:00:43;96441.84;;;22.74;100.00
25130;BME280;13308;50.860;13.664;2022-08-19T12:03:54;96438.28;;;22.74;100.00
25130;BME280;13308;50.860;13.664;2022-08-19T12:06:25;96445.25;;;23.06;100.00
25130;BME280;13308;50.860;13.664;2022-08-19T12:08:55;96441.41;;;23.03;100.00
25130;BME280;13308;50.860;13.664;2022-08-19T12:11:21;96448.28;;;22.97;100.00
25130;BME280;13308;50.860;13.664;2022-08-19T12:13:46;96444.16;;;22.81;100.00
25130;BME280;13308;50.860;13.664;2022-08-19T12:16:18;96450.25;;;22.52;100.00
25130;BME280;13308;50.860;13.664;2022-08-19T12:18:44;96454.16;;;22.18;100.00
25130;BME280;13308;50.860;13.664;2022-08-19T12:21:12;96461.72;;;21.96;100.00
25130;BME280;13308;50.860;13.664;2022-08-19T12:23:42;96455.22;;;21.79;100.00
25130;BME280;13308;50.860;13.664;2022-08-19T12:26:09;96455.41;;;21.70;100.00
25130;BME280;13308;50.860;13.664;2022-08-19T12:28:35;96453.19;;;21.54;100.00
25130;BME280;13308;50.860;13.664;2022-08-19T12:31:01;96464.63;;;21.45;100.00
25130;BME280;13308;50.860;13.664;2022-08-19T12:33:26;96462.81;;;21.42;100.00
25130;BME280;13308;50.860;13.664;2022-08-19T12:35:54;96462.00;;;21.36;100.00
25130;BME280;13308;50.860;13.664;2022-08-19T12:38:20;96455.16;;;21.42;100.00
25130;BME280;13308;50.860;13.664;2022-08-19T12:40:47;96449.06;;;21.44;100.00
25130;BME280;13308;50.860;13.664;2022-08-19T12:43:13;96462.81;;;21.42;100.00
25130;BME280;13308;50.860;13.664;2022-08-19T12:45:40;96468.50;;;21.53;100.00
25130;BME280;13308;50.860;13.664;2022-08-19T12:48:06;96459.09;;;21.56;100.00
25130;BME280;13308;50.860;13.664;2022-08-19T12:50:31;96461.91;;;21.56;100.00
25130;BME280;13308;50.860;13.664;2022-08-19T12:52:57;96464.84;;;21.67;100.00
25130;BME280;13308;50.860;13.664;2022-08-19T12:55:23;96462.84;;;21.78;100.00
25130;BME280;13308;50.860;13.664;2022-08-19T12:57:50;96463.34;;;21.77;100.00
25130;BME280;13308;50.860;13.664;2022-08-19T13:00:18;96460.63;;;21.88;100.00
25130;BME280;13308;50.860;13.664;2022-08-19T13:02:49;96466.53;;;21.90;100.00
25130;BME280;13308;50.860;13.664;2022-08-19T13:05:20;96468.06;;;21.96;100.00
25130;BME280;13308;50.860;13.664;2022-08-19T13:07:52;96454.06;;;22.02;100.00
25130;BME280;13308;50.860;13.664;2022-08-19T13:10:21;96458.91;;;22.01;100.00
25130;BME280;13308;50.860;13.664;2022-08-19T13:12:49;96458.03;;;21.79;100.00
25130;BME280;13308;50.860;13.664;2022-08-19T13:15:15;96454.81;;;21.66;100.00
25130;BME280;13308;50.860;13.664;2022-08-19T13:20:13;96465.53;;;21.62;100.00
25130;BME280;13308;50.860;13.664;2022-08-19T13:22:38;96454.72;;;21.49;100.00
25130;BME280;13308;50.860;13.664;2022-08-19T13:25:05;96461.19;;;21.30;100.00
25130;BME280;13308;50.860;13.664;2022-08-19T13:27:30;96458.78;;;21.17;100.00
25130;BME280;13308;50.860;13.664;2022-08-19T13:29:56;96453.94;;;21.18;100.00
25130;BME280;13308;50.860;13.664;2022-08-19T13:32:40;96447.81;;;21.14;100.00
25130;BME280;13308;50.860;13.664;2022-08-19T13:35:23;96455.56;;;21.30;100.00
25130;BME280;13308;50.860;13.664;2022-08-19T13:37:49;96455.63;;;21.35;100.00
25130;BME280;13308;50.860;13.664;2022-08-19T13:40:18;96440.44;;;21.53;100.00
25130;BME280;13308;50.860;13.664;2022-08-19T13:42:48;96449.03;;;21.69;100.00
25130;BME280;13308;50.860;13.664;2022-08-19T13:45:15;96450.59;;;21.76;100.00
25130;BME280;13308;50.860;13.664;2022-08-19T13:47:45;96461.56;;;21.74;100.00
25130;BME280;13308;50.860;13.664;2022-08-19T13:50:13;96447.78;;;21.76;100.00
25130;BME280;13308;50.860;13.664;2022-08-19T13:52:39;96468.41;;;21.42;100.00
25130;BME280;13308;50.860;13.664;2022-08-19T13:55:06;96468.25;;;21.20;100.00
25130;BME280;13308;50.860;13.664;2022-08-19T13:57:31;96471.78;;;21.15;100.00
25130;BME280;13308;50.860;13.664;2022-08-19T14:00:00;96478.28;;;21.01;100.00
25130;BME280;13308;50.860;13.664;2022-08-19T14:02:26;96470.59;;;20.96;100.00
25130;BME280;13308;50.860;13.664;2022-08-19T14:04:52;96470.34;;;20.99;100.00
25130;BME280;13308;50.860;13.664;2022-08-19T14:07:17;96463.97;;;20.99;100.00
25130;BME280;13308;50.860;13.664;2022-08-19T14:09:42;96464.81;;;20.85;100.00
25130;BME280;13308;50.860;13.664;2022-08-19T14:12:08;96466.25;;;20.75;100.00
25130;BME280;13308;50.860;13.664;2022-08-19T14:14:37;96457.84;;;20.75;100.00
25130;BME280;13308;50.860;13.664;2022-08-19T14:17:06;96461.78;;;20.63;100.00
25130;BME280;13308;50.860;13.664;2022-08-19T14:19:31;96447.78;;;20.63;100.00
25130;BME280;13308;50.860;13.664;2022-08-19T14:21:56;96449.72;;;20.77;100.00
25130;BME280;13308;50.860;13.664;2022-08-19T14:24:22;96457.09;;;20.74;100.00
25130;BME280;13308;50.860;13.664;2022-08-19T14:26:47;96461.19;;;20.79;100.00
25130;BME280;13308;50.860;13.664;2022-08-19T14:29:13;96462.63;;;20.69;100.00
25130;BME280;13308;50.860;13.664;2022-08-19T14:31:39;96464.00;;;20.79;100.00
25130;BME280;13308;50.860;13.664;2022-08-19T14:34:05;96468.34;;;20.80;100.00
25130;BME280;13308;50.860;13.664;2022-08-19T14:36:31;96474.22;;;20.82;100.00
25130;BME280;13308;50.860;13.664;2022-08-19T14:38:59;96470.44;;;20.85;100.00
25130;BME280;13308;50.860;13.664;2022-08-19T14:41:26;96477.03;;;20.82;100.00
25130;BME280;13308;50.860;13.664;2022-08-19T14:43:53;96482.41;;;20.85;100.00
25130;BME280;13308;50.860;13.664;2022-08-19T14:46:21;96474.94;;;20.77;100.00
25130;BME280;13308;50.860;13.664;2022-08-19T14:48:47;96473.84;;;20.89;100.00
25130;BME280;13308;50.860;13.664;2022-08-19T14:51:13;96469.88;;;20.81;100.00
25130;BME280;13308;50.860;13.664;2022-08-19T14:53:39;96462.69;;;20.74;100.00
25130;BME280;13308;50.860;13.664;2022-08-19T14:56:13;96470.09;;;20.77;100.00
25130;BME280;13308;50.860;13.664;2022-08-19T14:58:40;96468.78;;;20.73;100.00
25130;BME280;13308;50.860;13.664;2022-08-19T15:01:06;96469.59;;;20.79;100.00
25130;BME280;13308;50.860;13.664;2022-08-19T15:03:32;96475.91;;;20.74;100.00
25130;BME280;13308;50.860;13.664;2022-08-19T15:05:58;96483.84;;;20.75;100.00
25130;BME280;13308;50.860;13.664;2022-08-19T15:08:24;96483.66;;;20.39;100.00
25130;BME280;13308;50.860;13.664;2022-08-19T15:10:51;96478.25;;;20.55;100.00
25130;BME280;13308;50.860;13.664;2022-08-19T15:13:17;96482.19;;;20.63;100.00
25130;BME280;13308;50.860;13.664;2022-08-19T15:15:42;96478.69;;;20.68;100.00
25130;BME280;13308;50.860;13.664;2022-08-19T15:18:07;96492.97;;;20.70;100.00
25130;BME280;13308;50.860;13.664;2022-08-19T15:20:33;96493.19;;;20.67;100.00
25130;BME280;13308;50.860;13.664;2022-08-19T15:22:58;96486.47;;;20.59;100.00
25130;BME280;13308;50.860;13.664;2022-08-19T15:25:25;96489.47;;;20.55;100.00
25130;BME280;13308;50.860;13.664;2022-08-19T15:27:51;96474.13;;;20.51;100.00
25130;BME280;13308;50.860;13.664;2022-08-19T15:30:23;96466.44;;;20.46;100.00
25130;BME280;13308;50.860;13.664;2022-08-19T15:32:48;96468.00;;;20.47;100.00
25130;BME280;13308;50.860;13.664;2022-08-19T15:35:14;96455.06;;;20.55;100.00
25130;BME280;13308;50.860;13.664;2022-08-19T15:37:39;96461.06;;;20.68;100.00
25130;BME280;13308;50.860;13.664;2022-08-19T15:40:05;96453.06;;;20.81;100.00
25130;BME280;13308;50.860;13.664;2022-08-19T15:42:34;96444.91;;;21.03;100.00
25130;BME280;13308;50.860;13.664;2022-08-19T15:45:00;96442.19;;;21.14;100.00
25130;BME280;13308;50.860;13.664;2022-08-19T15:47:28;96440.09;;;21.09;100.00
25130;BME280;13308;50.860;13.664;2022-08-19T15:49:54;96440.19;;;21.20;100.00
25130;BME280;13308;50.860;13.664;2022-08-19T15:52:20;96438.66;;;21.19;100.00
25130;BME280;13308;50.860;13.664;2022-08-19T15:54:45;96444.72;;;21.12;100.00
25130;BME280;13308;50.860;13.664;2022-08-19T15:57:10;96450.75;;;21.05;100.00
25130;BME280;13308;50.860;13.664;2022-08-19T15:59:51;96446.63;;;20.95;100.00
25130;BME280;13308;50.860;13.664;2022-08-19T16:02:35;96452.53;;;20.77;100.00
25130;BME280;13308;50.860;13.664;2022-08-19T16:05:23;96455.19;;;20.66;100.00
25130;BME280;13308;50.860;13.664;2022-08-19T16:08:08;96458.44;;;20.59;100.00
25130;BME280;13308;50.860;13.664;2022-08-19T16:10:35;96458.53;;;20.44;100.00
25130;BME280;13308;50.860;13.664;2022-08-19T16:13:00;96463.63;;;20.46;100.00
25130;BME280;13308;50.860;13.664;2022-08-19T16:15:29;96460.81;;;20.46;100.00
25130;BME280;13308;50.860;13.664;2022-08-19T16:17:55;96451.09;;;20.41;100.00
25130;BME280;13308;50.860;13.664;2022-08-19T16:20:21;96453.41;;;20.43;100.00
25130;BME280;13308;50.860;13.664;2022-08-19T16:22:47;96438.63;;;20.42;100.00
25130;BME280;13308;50.860;13.664;2022-08-19T16:25:13;96432.81;;;20.46;100.00
25130;BME280;13308;50.860;13.664;2022-08-19T16:27:39;96426.00;;;20.52;100.00
25130;BME280;13308;50.860;13.664;2022-08-19T16:30:05;96427.41;;;20.62;100.00
25130;BME280;13308;50.860;13.664;2022-08-19T16:32:31;96425.34;;;20.63;100.00
25130;BME280;13308;50.860;13.664;2022-08-19T16:34:56;96424.06;;;20.64;100.00
25130;BME280;13308;50.860;13.664;2022-08-19T16:37:21;96414.56;;;20.56;100.00
25130;BME280;13308;50.860;13.664;2022-08-19T16:39:47;96429.19;;;20.65;100.00
25130;BME280;13308;50.860;13.664;2022-08-19T16:42:13;96435.03;;;20.62;100.00
25130;BME280;13308;50.860;13.664;2022-08-19T16:44:41;96428.97;;;20.69;100.00
25130;BME280;13308;50.860;13.664;2022-08-19T16:47:07;96424.59;;;20.62;100.00
25130;BME280;13308;50.860;13.664;2022-08-19T16:49:32;96428.03;;;20.52;100.00
25130;BME280;13308;50.860;13.664;2022-08-19T16:51:58;96420.28;;;20.41;100.00
25130;BME280;13308;50.860;13.664;2022-08-19T16:54:23;96420.16;;;20.30;100.00
25130;BME280;13308;50.860;13.664;2022-08-19T16:56:50;96422.59;;;20.23;100.00
25130;BME280;13308;50.860;13.664;2022-08-19T16:59:16;96433.97;;;20.14;100.00
25130;BME280;13308;50.860;13.664;2022-08-19T17:01:42;96438.91;;;20.04;100.00
25130;BME280;13308;50.860;13.664;2022-08-19T17:04:08;96444.84;;;19.92;100.00
25130;BME280;13308;50.860;13.664;2022-08-19T17:06:34;96451.91;;;19.87;100.00
25130;BME280;13308;50.860;13.664;2022-08-19T17:09:02;96451.06;;;19.81;100.00
25130;BME280;13308;50.860;13.664;2022-08-19T17:11:29;96439.09;;;19.81;100.00
25130;BME280;13308;50.860;13.664;2022-08-19T17:13:57;96430.63;;;19.75;100.00
25130;BME280;13308;50.860;13.664;2022-08-19T17:16:26;96443.75;;;19.69;100.00
25130;BME280;13308;50.860;13.664;2022-08-19T17:18:53;96455.75;;;19.70;100.00
25130;BME280;13308;50.860;13.664;2022-08-19T17:21:22;96460.06;;;19.71;100.00
25130;BME280;13308;50.860;13.664;2022-08-19T17:23:49;96455.75;;;19.70;100.00
25130;BME280;13308;50.860;13.664;2022-08-19T17:26:16;96456.69;;;19.67;100.00